Time;durP1;ratioP1;P1;durP2;ratioP2;P2;SDS_P1;SDS_P2;PMS_P1;PMS_P2;Temp;Humidity;BMP_temperature;BMP_pressure;BME280_temperature;BME280_humidity;BME280_pressure;Samples;Min_cycle;Max_cycle;Signal;HPM_P1;HPM_P2
2023/07/08 00:00:27;;;;;;;1.70;1.60;;;17.60;99.90;;;;;;4195661;28;20056;-63
2023/07/08 00:02:47;;;;;;;1.52;1.52;;;17.60;99.90;;;;;;4195920;28;20125;-63
2023/07/08 00:05:08;;;;;;;1.63;1.60;;;17.70;99.90;;;;;;4194254;28;20092;-63
2023/07/08 00:07:28;;;;;;;1.50;1.42;;;17.70;99.90;;;;;;4192174;28;20056;-62
2023/07/08 00:09:48;;;;;;;2.00;1.20;;;17.80;99.90;;;;;;4191331;28;20044;-62
2023/07/08 00:12:10;;;;;;;1.20;1.13;;;17.70;99.90;;;;;;4191962;28;20055;-62
2023/07/08 00:14:30;;;;;;;2.42;1.23;;;17.50;99.90;;;;;;4190881;28;20118;-62
2023/07/08 00:16:51;;;;;;;1.48;1.38;;;17.30;99.90;;;;;;4198252;28;20057;-62
2023/07/08 00:19:11;;;;;;;7.57;1.40;;;17.10;99.90;;;;;;4198771;28;20063;-62
2023/07/08 00:21:31;;;;;;;2.45;1.77;;;17.10;99.90;;;;;;4199607;28;20067;-62
2023/07/08 00:23:51;;;;;;;1.92;1.55;;;17.30;99.90;;;;;;4200290;28;20066;-62
2023/07/08 00:26:27;;;;;;;4.15;1.85;;;17.40;99.90;;;;;;4204321;28;20248;-62
2023/07/08 00:28:47;;;;;;;2.67;1.75;;;17.40;99.90;;;;;;4203314;28;20071;-62
2023/07/08 00:31:10;;;;;;;1.85;1.75;;;17.20;99.90;;;;;;4191389;28;20146;-62
2023/07/08 00:33:30;;;;;;;1.50;1.50;;;17.10;99.90;;;;;;4196206;28;20048;-62
2023/07/08 00:35:49;;;;;;;1.70;1.48;;;17.30;99.90;;;;;;4197142;28;20098;-62
2023/07/08 00:38:27;;;;;;;1.30;1.20;;;17.50;99.90;;;;;;4197887;28;20044;-62
2023/07/08 00:41:26;;;;;;;1.55;1.42;;;17.50;99.90;;;;;;4199344;28;20400;-62
2023/07/08 00:43:51;;;;;;;1.40;1.40;;;17.40;99.90;;;;;;4200090;28;20122;-62
2023/07/08 00:46:26;;;;;;;1.50;1.40;;;17.20;99.90;;;;;;4199601;28;20044;-62
2023/07/08 00:48:48;;;;;;;1.30;1.30;;;17.20;99.90;;;;;;4200137;28;20086;-62
2023/07/08 00:51:12;;;;;;;1.75;1.52;;;17.20;99.90;;;;;;4190984;28;20090;-62
2023/07/08 00:53:35;;;;;;;1.88;1.25;;;17.40;99.90;;;;;;4195740;28;20235;-63
2023/07/08 00:56:09;;;;;;;2.17;1.40;;;17.20;99.90;;;;;;4196579;28;20417;-62
2023/07/08 00:58:42;;;;;;;1.80;1.70;;;17.00;99.90;;;;;;4195848;28;20093;-63
2023/07/08 01:01:06;;;;;;;1.52;1.42;;;16.70;99.90;;;;;;4195674;28;20048;-63
2023/07/08 01:03:28;;;;;;;2.63;1.10;;;16.40;99.90;;;;;;4187649;22;20060;-82
2023/07/08 01:05:50;;;;;;;1.55;1.15;;;16.20;99.90;;;;;;4159912;28;20184;-82
2023/07/08 01:08:10;;;;;;;1.70;1.45;;;16.00;99.90;;;;;;4160470;28;20399;-81
2023/07/08 01:10:39;;;;;;;3.15;1.58;;;15.90;99.90;;;;;;4158293;28;20049;-81
2023/07/08 01:13:02;;;;;;;1.98;1.77;;;16.00;99.90;;;;;;4157940;28;20049;-81
2023/07/08 01:15:26;;;;;;;1.23;1.20;;;15.80;99.90;;;;;;4157022;28;20100;-81
2023/07/08 01:17:46;;;;;;;1.33;1.20;;;15.80;99.90;;;;;;4157376;28;20049;-81
2023/07/08 01:20:12;;;;;;;1.40;1.40;;;16.00;99.90;;;;;;4155695;28;20060;-82
2023/07/08 01:22:35;;;;;;;1.30;1.30;;;16.00;99.90;;;;;;4158717;28;20091;-82
2023/07/08 01:24:55;;;;;;;2.63;2.38;;;16.00;99.90;;;;;;4152336;28;20049;-83
2023/07/08 01:27:17;;;;;;;1.90;1.85;;;15.90;99.90;;;;;;4168297;28;20053;-82
2023/07/08 01:29:38;;;;;;;1.38;1.20;;;16.00;99.90;;;;;;4170678;28;20487;-83
2023/07/08 01:32:02;;;;;;;1.55;1.52;;;16.00;99.90;;;;;;4148272;28;20045;-82
2023/07/08 01:34:23;;;;;;;3.13;1.80;;;16.10;99.90;;;;;;4155747;28;20089;-82
2023/07/08 01:36:51;;;;;;;1.77;1.67;;;16.20;99.90;;;;;;4161137;28;20297;-82
2023/07/08 01:39:17;;;;;;;1.70;1.60;;;16.20;99.90;;;;;;4158641;28;20078;-82
2023/07/08 01:41:37;;;;;;;1.38;1.27;;;16.10;99.90;;;;;;4149399;28;20153;-81
2023/07/08 01:43:58;;;;;;;3.63;1.85;;;16.00;99.90;;;;;;4150691;28;20072;-83
2023/07/08 01:46:23;;;;;;;1.95;1.40;;;16.00;99.90;;;;;;4152487;28;20053;-82
2023/07/08 01:48:49;;;;;;;3.22;1.58;;;16.00;99.90;;;;;;4152150;28;20087;-83
2023/07/08 01:51:09;;;;;;;1.13;1.13;;;16.10;99.90;;;;;;4153525;28;20052;-82
2023/07/08 01:53:38;;;;;;;1.67;1.50;;;16.10;99.90;;;;;;4127308;28;20485;-82
2023/07/08 01:55:58;;;;;;;2.88;1.90;;;16.20;99.90;;;;;;4143490;28;20113;-83
2023/07/08 01:58:18;;;;;;;1.77;1.40;;;16.20;99.90;;;;;;4147046;28;20226;-83
2023/07/08 02:00:38;;;;;;;2.00;1.90;;;16.00;99.90;;;;;;4147356;28;20069;-83
2023/07/08 02:02:59;;;;;;;4.18;1.60;;;15.80;99.90;;;;;;4147386;28;20124;-83
2023/07/08 02:05:19;;;;;;;1.30;1.30;;;15.70;99.90;;;;;;4134911;28;20265;-83
2023/07/08 02:07:39;;;;;;;1.83;1.50;;;15.70;99.90;;;;;;4136949;28;20100;-83
2023/07/08 02:09:59;;;;;;;1.38;1.38;;;15.60;99.90;;;;;;4151478;28;20267;-83
2023/07/08 02:12:19;;;;;;;1.50;1.40;;;15.50;99.90;;;;;;4143966;28;20049;-83
2023/07/08 02:14:39;;;;;;;1.40;1.40;;;15.40;99.90;;;;;;4141920;28;20092;-83
2023/07/08 02:16:59;;;;;;;1.55;1.45;;;15.40;99.90;;;;;;4146052;28;20081;-82
2023/07/08 02:19:21;;;;;;;1.92;1.90;;;15.30;99.90;;;;;;4144876;28;20076;-83
2023/07/08 02:21:42;;;;;;;4.72;1.48;;;15.30;99.90;;;;;;4146355;28;20114;-82
2023/07/08 02:24:02;;;;;;;2.65;1.50;;;15.40;99.90;;;;;;4146943;28;20269;-83
2023/07/08 02:26:23;;;;;;;1.60;1.60;;;15.50;99.90;;;;;;4135908;28;20446;-83
2023/07/08 02:28:44;;;;;;;1.55;1.45;;;15.50;99.90;;;;;;4150174;28;20110;-82
2023/07/08 02:31:04;;;;;;;1.80;1.70;;;15.60;99.90;;;;;;4150398;28;20253;-82
2023/07/08 02:33:27;;;;;;;1.70;1.60;;;15.50;99.90;;;;;;4147563;28;20084;-82
2023/07/08 02:35:47;;;;;;;1.98;1.80;;;15.50;99.90;;;;;;4139760;28;20057;-83
2023/07/08 02:38:07;;;;;;;1.65;1.40;;;15.50;99.90;;;;;;4144122;28;20077;-83
2023/07/08 02:40:27;;;;;;;2.05;1.85;;;15.60;99.90;;;;;;4145195;28;20048;-83
2023/07/08 02:42:48;;;;;;;1.52;1.40;;;15.60;99.90;;;;;;4146655;28;20101;-83
2023/07/08 02:45:08;;;;;;;1.90;1.90;;;15.40;99.90;;;;;;4150084;28;20164;-83
2023/07/08 02:47:28;;;;;;;1.50;1.40;;;15.20;99.90;;;;;;4149858;28;20081;-83
2023/07/08 02:49:48;;;;;;;2.30;2.20;;;15.00;99.90;;;;;;4153153;28;20080;-83
2023/07/08 02:52:09;;;;;;;4.00;2.47;;;14.90;99.90;;;;;;4155031;28;20049;-82
2023/07/08 02:54:29;;;;;;;1.55;1.52;;;14.70;99.90;;;;;;4144400;28;20056;-83
2023/07/08 02:56:49;;;;;;;1.75;1.70;;;14.60;99.90;;;;;;4141962;28;20061;-82
2023/07/08 02:59:09;;;;;;;1.48;1.48;;;14.60;99.90;;;;;;4142847;28;20048;-82
2023/07/08 03:01:29;;;;;;;1.98;1.77;;;14.70;99.90;;;;;;4144234;28;20052;-82
2023/07/08 03:03:49;;;;;;;4.10;1.30;;;14.60;99.90;;;;;;4149480;28;20081;-83
2023/07/08 03:06:09;;;;;;;1.65;1.55;;;14.60;99.90;;;;;;4149055;28;20085;-83
2023/07/08 03:08:29;;;;;;;2.00;1.90;;;14.50;99.90;;;;;;4149636;28;20268;-83
2023/07/08 03:10:58;;;;;;;3.38;2.00;;;14.50;99.90;;;;;;4153448;28;20053;-83
2023/07/08 03:13:19;;;;;;;2.05;1.85;;;14.50;99.90;;;;;;4154171;28;20138;-82
2023/07/08 03:15:39;;;;;;;1.52;1.42;;;14.40;99.90;;;;;;4140805;28;20048;-82
2023/07/08 03:17:59;;;;;;;2.30;2.20;;;14.40;99.90;;;;;;4142523;28;20060;-83
2023/07/08 03:20:19;;;;;;;2.45;2.35;;;14.30;99.90;;;;;;4143453;28;20416;-83
2023/07/08 03:22:39;;;;;;;1.67;1.58;;;14.20;99.90;;;;;;4144675;28;20045;-82
2023/07/08 03:24:59;;;;;;;1.77;1.67;;;14.20;99.90;;;;;;4148070;28;20111;-83
2023/07/08 03:27:18;;;;;;;1.70;1.60;;;14.20;99.90;;;;;;4135989;28;20049;-83
2023/07/08 03:29:39;;;;;;;2.17;1.63;;;14.30;99.90;;;;;;4150852;28;20394;-83
2023/07/08 03:31:58;;;;;;;3.22;2.15;;;14.40;99.90;;;;;;4152726;28;20216;-83
2023/07/08 03:34:19;;;;;;;3.88;1.50;;;14.30;99.90;;;;;;4153588;28;20288;-83
2023/07/08 03:36:50;;;;;;;2.25;1.88;;;14.20;99.90;;;;;;4143577;28;20058;-82
2023/07/08 03:39:10;;;;;;;2.28;1.35;;;14.40;99.90;;;;;;4145468;28;20053;-82
2023/07/08 03:41:30;;;;;;;1.33;1.33;;;14.50;99.90;;;;;;4147585;28;20096;-82
2023/07/08 03:43:52;;;;;;;2.10;1.40;;;14.60;99.90;;;;;;4148177;28;20081;-82
2023/07/08 03:46:15;;;;;;;1.50;1.48;;;14.70;99.90;;;;;;4150628;28;20376;-83
2023/07/08 03:48:35;;;;;;;1.58;1.58;;;14.70;99.90;;;;;;4152561;28;20053;-82
2023/07/08 03:50:55;;;;;;;1.60;1.50;;;14.70;99.90;;;;;;4138587;28;20050;-82
2023/07/08 03:53:15;;;;;;;2.08;1.90;;;14.70;99.90;;;;;;4156680;28;20100;-82
2023/07/08 03:55:35;;;;;;;1.73;1.67;;;14.50;99.90;;;;;;4150255;28;20269;-82
2023/07/08 03:57:56;;;;;;;2.20;2.10;;;14.50;99.90;;;;;;4142878;28;20049;-83
2023/07/08 04:00:16;;;;;;;1.92;1.77;;;14.60;99.90;;;;;;4130335;28;20080;-82
2023/07/08 04:02:36;;;;;;;2.38;1.70;;;14.80;99.90;;;;;;4145196;28;20044;-82
2023/07/08 04:04:56;;;;;;;1.92;1.92;;;14.80;99.90;;;;;;4148192;28;20052;-82
2023/07/08 04:07:16;;;;;;;1.98;1.88;;;14.80;99.90;;;;;;4152744;28;20076;-82
2023/07/08 04:09:36;;;;;;;1.52;1.42;;;14.70;99.90;;;;;;4137324;28;20082;-82
2023/07/08 04:11:56;;;;;;;2.38;2.28;;;14.50;99.90;;;;;;4152987;28;20177;-82
2023/07/08 04:14:16;;;;;;;2.72;1.98;;;14.30;99.90;;;;;;4155963;28;20104;-82
2023/07/08 04:16:46;;;;;;;1.83;1.70;;;14.20;99.90;;;;;;4146201;28;20056;-82
2023/07/08 04:19:14;;;;;;;2.50;2.40;;;14.20;99.90;;;;;;4145711;28;20046;-82
2023/07/08 04:21:34;;;;;;;2.25;2.15;;;14.20;99.90;;;;;;4148496;28;20093;-82
2023/07/08 04:23:54;;;;;;;2.05;2.03;;;14.10;99.90;;;;;;4147072;28;20081;-82
2023/07/08 04:26:15;;;;;;;2.15;2.05;;;14.00;99.90;;;;;;4147315;28;20101;-82
2023/07/08 04:28:35;;;;;;;2.30;2.20;;;13.90;99.90;;;;;;4151316;28;20109;-82
2023/07/08 04:30:55;;;;;;;2.25;2.05;;;13.90;99.90;;;;;;4152317;28;20084;-82
2023/07/08 04:33:16;;;;;;;2.00;1.90;;;14.00;99.90;;;;;;4153816;28;20085;-82
2023/07/08 04:35:40;;;;;;;2.50;2.35;;;14.00;99.90;;;;;;4153585;28;20300;-82
2023/07/08 04:38:01;;;;;;;3.53;3.15;;;14.00;99.90;;;;;;4139734;28;20049;-83
2023/07/08 04:40:21;;;;;;;2.45;2.42;;;14.10;99.90;;;;;;4129875;28;20074;-82
2023/07/08 04:42:41;;;;;;;2.10;1.85;;;14.00;99.90;;;;;;4146351;28;20053;-82
2023/07/08 04:45:04;;;;;;;2.55;2.35;;;14.10;99.90;;;;;;4146751;28;20309;-82
2023/07/08 04:47:24;;;;;;;2.00;1.90;;;14.10;99.90;;;;;;4150327;28;20048;-82
2023/07/08 04:49:44;;;;;;;3.85;1.73;;;14.30;99.90;;;;;;4151920;28;20326;-82
2023/07/08 04:52:05;;;;;;;2.10;1.90;;;14.30;99.90;;;;;;4138723;28;20412;-83
2023/07/08 04:54:25;;;;;;;1.70;1.70;;;14.30;99.90;;;;;;4153285;28;20123;-82
2023/07/08 04:56:48;;;;;;;3.03;1.83;;;14.40;99.90;;;;;;4152113;28;20104;-82
2023/07/08 04:59:10;;;;;;;2.75;2.50;;;14.40;99.90;;;;;;4141445;28;20053;-82
2023/07/08 05:01:30;;;;;;;4.97;2.30;;;14.40;99.90;;;;;;4129669;28;20045;-82
2023/07/08 05:03:50;;;;;;;2.17;2.08;;;14.50;99.90;;;;;;4147530;28;20081;-82
2023/07/08 05:06:10;;;;;;;2.22;2.13;;;14.50;99.90;;;;;;4146511;28;20037;-82
2023/07/08 05:08:30;;;;;;;2.50;1.58;;;14.50;99.90;;;;;;4150443;28;20068;-82
2023/07/08 05:10:50;;;;;;;3.47;1.70;;;14.50;99.90;;;;;;4151233;28;20052;-82
2023/07/08 05:13:10;;;;;;;1.98;1.90;;;14.50;99.90;;;;;;4154345;28;20049;-82
2023/07/08 05:15:30;;;;;;;3.38;1.98;;;14.60;99.90;;;;;;4151368;28;20411;-82
2023/07/08 05:17:51;;;;;;;2.80;1.63;;;14.60;99.90;;;;;;4130387;28;20053;-92
2023/07/08 05:20:14;;;;;;;2.45;2.35;;;14.70;99.90;;;;;;4150503;28;20053;-89
2023/07/08 05:22:35;;;;;;;6.53;1.88;;;14.80;99.90;;;;;;4150050;28;20053;-90
2023/07/08 05:24:55;;;;;;;2.15;2.00;;;14.80;99.90;;;;;;4150852;28;20216;-92
2023/07/08 05:27:15;;;;;;;2.20;2.10;;;14.90;99.90;;;;;;4150149;28;20094;-90
2023/07/08 05:29:36;;;;;;;2.03;1.98;;;14.90;99.90;;;;;;4137016;28;20058;-91
2023/07/08 05:31:56;;;;;;;1.73;1.58;;;14.90;99.90;;;;;;4151221;28;20352;-92
2023/07/08 05:34:17;;;;;;;3.10;2.05;;;14.90;99.90;;;;;;4152166;28;20049;-92
2023/07/08 05:36:38;;;;;;;2.88;1.83;;;15.00;99.90;;;;;;4152809;28;20141;-93
2023/07/08 05:38:58;;;;;;;2.83;1.85;;;15.10;99.90;;;;;;4147714;28;20057;-91
2023/07/08 05:41:19;;;;;;;2.08;2.03;;;15.20;99.90;;;;;;4147067;28;20076;-93
2023/07/08 05:43:38;;;;;;;5.13;1.90;;;15.30;99.90;;;;;;4132607;28;20042;-91
2023/07/08 05:46:00;;;;;;;2.72;2.45;;;15.40;99.90;;;;;;4145344;28;20061;-92
2023/07/08 05:48:32;;;;;;;1.33;1.33;;;15.50;99.90;;;;;;4147872;28;20069;-91
2023/07/08 05:50:52;;;;;;;1.88;1.77;;;15.50;99.90;;;;;;4136158;28;20057;-93
2023/07/08 05:53:14;;;;;;;2.90;1.48;;;15.70;99.90;;;;;;4145674;28;20094;-94
2023/07/08 05:55:34;;;;;;;3.50;1.63;;;15.90;99.90;;;;;;4154206;28;20117;-93
2023/07/08 05:57:54;;;;;;;1.85;1.75;;;16.00;99.90;;;;;;4142203;28;20106;-93
2023/07/08 06:00:14;;;;;;;2.28;1.58;;;16.20;99.90;;;;;;4141603;28;20057;-92
2023/07/08 06:02:50;;;;;;;4.10;2.08;;;16.30;99.90;;;;;;4135939;28;20092;-93
2023/07/08 06:05:11;;;;;;;1.90;1.80;;;16.60;99.90;;;;;;4144973;28;20073;-93
2023/07/08 06:07:32;;;;;;;2.10;1.88;;;16.90;99.90;;;;;;4145842;28;20049;-92
2023/07/08 06:09:51;;;;;;;1.95;1.85;;;17.10;99.90;;;;;;4149591;28;20312;-93
2023/07/08 06:12:12;;;;;;;1.80;1.70;;;17.50;99.90;;;;;;4151277;28;20053;-92
2023/07/08 06:14:32;;;;;;;2.17;1.85;;;17.80;99.90;;;;;;4139998;28;20129;-93
2023/07/08 06:16:54;;;;;;;1.88;1.60;;;17.70;99.90;;;;;;4152386;28;20268;-92
2023/07/08 06:19:16;;;;;;;1.80;1.70;;;17.70;99.90;;;;;;4151276;28;20061;-93
2023/07/08 06:21:37;;;;;;;2.00;1.88;;;17.80;99.90;;;;;;4145729;28;20313;-92
2023/07/08 06:24:00;;;;;;;2.60;1.30;;;17.90;99.90;;;;;;4136920;28;20088;-82
2023/07/08 06:26:20;;;;;;;4.00;2.13;;;18.00;99.90;;;;;;4147314;28;20120;-82
2023/07/08 06:28:39;;;;;;;1.23;1.13;;;18.10;99.90;;;;;;4139946;28;20110;-82
2023/07/08 06:31:00;;;;;;;2.63;1.58;;;18.20;99.90;;;;;;4149051;28;20049;-82
2023/07/08 06:33:20;;;;;;;3.50;1.45;;;18.20;99.90;;;;;;4139870;28;20053;-82
2023/07/08 06:35:40;;;;;;;1.30;1.30;;;18.20;99.90;;;;;;4145933;28;20052;-82
2023/07/08 06:38:04;;;;;;;2.40;1.67;;;18.10;99.90;;;;;;4138593;28;20057;-82
2023/07/08 06:40:24;;;;;;;1.60;1.60;;;18.20;99.90;;;;;;4140385;28;20073;-83
2023/07/08 06:42:45;;;;;;;1.73;1.63;;;18.20;99.90;;;;;;4144595;28;20045;-82
2023/07/08 06:45:06;;;;;;;2.13;1.85;;;18.30;99.90;;;;;;4142479;28;20052;-82
2023/07/08 06:47:26;;;;;;;2.70;1.90;;;18.40;99.90;;;;;;4130430;28;20053;-82
2023/07/08 06:49:47;;;;;;;1.90;1.80;;;18.30;99.90;;;;;;4147608;28;20061;-82
2023/07/08 06:52:07;;;;;;;2.35;1.80;;;18.30;99.90;;;;;;4150995;28;20057;-82
2023/07/08 06:54:28;;;;;;;2.95;1.40;;;18.40;99.90;;;;;;4147497;28;20054;-82
2023/07/08 06:56:47;;;;;;;1.67;1.65;;;18.40;99.90;;;;;;4150403;28;20056;-82
2023/07/08 06:59:31;;;;;;;1.80;1.70;;;18.70;99.90;;;;;;4154601;28;20374;-82
2023/07/08 07:01:51;;;;;;;;;;;19.00;99.90;;;;;;4066053;29;20118;-82
2023/07/08 07:04:11;;;;;;;3.53;1.30;;;19.10;99.90;;;;;;4079800;29;19925;-82
2023/07/08 07:06:31;;;;;;;4.45;1.40;;;19.30;99.90;;;;;;4079559;29;20063;-81
2023/07/08 07:08:51;;;;;;;5.07;2.25;;;19.30;99.90;;;;;;4064847;29;20545;-82
2023/07/08 07:11:11;;;;;;;2.00;1.90;;;19.40;99.90;;;;;;4079644;29;20280;-82
2023/07/08 07:13:32;;;;;;;1.60;1.55;;;19.50;99.90;;;;;;4065750;29;20100;-82
2023/07/08 07:15:52;;;;;;;1.73;1.60;;;19.70;99.90;;;;;;4083840;29;20279;-82
2023/07/08 07:18:12;;;;;;;1.95;1.85;;;19.80;99.90;;;;;;4079173;29;20115;-82
2023/07/08 07:20:35;;;;;;;2.25;1.65;;;20.00;99.90;;;;;;4076763;29;20144;-82
2023/07/08 07:22:56;;;;;;;2.22;1.45;;;20.40;99.90;;;;;;4076994;29;20050;-82
2023/07/08 07:25:16;;;;;;;1.83;1.20;;;20.70;99.90;;;;;;4074749;29;20370;-82
2023/07/08 07:27:36;;;;;;;1.70;1.60;;;21.00;99.90;;;;;;4078194;29;20054;-83
2023/07/08 07:29:59;;;;;;;3.40;1.10;;;21.30;99.50;;;;;;4076486;29;20393;-82
2023/07/08 07:32:23;;;;;;;1.90;1.40;;;21.50;98.30;;;;;;4064172;29;20046;-82
2023/07/08 07:34:47;;;;;;;1.85;1.23;;;21.90;98.90;;;;;;4079173;29;20651;-85
2023/07/08 07:37:11;;;;;;;1.20;1.20;;;22.00;98.70;;;;;;4079448;29;20068;-85
2023/07/08 07:39:31;;;;;;;1.17;1.10;;;22.00;98.80;;;;;;4130258;28;20384;-85
2023/07/08 07:41:51;;;;;;;1.67;1.40;;;22.20;96.10;;;;;;4144262;28;20112;-85
2023/07/08 07:44:12;;;;;;;2.00;1.20;;;22.50;96.30;;;;;;4132946;28;20077;-85
2023/07/08 07:46:32;;;;;;;1.40;1.30;;;22.60;97.80;;;;;;4131043;28;20334;-85
2023/07/08 07:48:53;;;;;;;2.38;1.30;;;22.70;99.10;;;;;;4126701;28;20092;-85
2023/07/08 07:51:13;;;;;;;3.80;1.10;;;22.60;97.30;;;;;;4144834;28;20379;-85
2023/07/08 07:53:33;;;;;;;1.35;1.25;;;22.80;99.10;;;;;;4139214;28;20098;-85
2023/07/08 07:56:02;;;;;;;5.38;1.25;;;22.90;98.20;;;;;;4152064;28;20288;-85
2023/07/08 07:58:23;;;;;;;3.15;1.30;;;23.10;97.30;;;;;;4149298;28;20103;-85
2023/07/08 08:00:43;;;;;;;4.18;1.55;;;23.00;95.40;;;;;;4139501;28;20285;-85
2023/07/08 08:03:03;;;;;;;10.90;3.35;;;23.10;96.30;;;;;;4126393;28;20081;-85
2023/07/08 08:05:23;;;;;;;11.68;1.65;;;23.30;97.10;;;;;;4133055;28;20114;-85
2023/07/08 08:07:44;;;;;;;1.30;1.20;;;23.40;98.70;;;;;;4126751;28;20409;-85
2023/07/08 08:10:04;;;;;;;2.28;1.10;;;23.20;98.80;;;;;;4148716;28;20049;-85
2023/07/08 08:12:24;;;;;;;2.03;1.00;;;23.00;98.30;;;;;;4154393;28;20076;-85
2023/07/08 08:14:44;;;;;;;2.88;1.20;;;22.80;98.70;;;;;;4151597;28;20042;-85
2023/07/08 08:17:05;;;;;;;4.03;1.00;;;22.80;97.50;;;;;;4148262;28;20069;-86
2023/07/08 08:19:25;;;;;;;1.70;1.60;;;22.70;97.80;;;;;;4131087;28;20453;-85
2023/07/08 08:21:45;;;;;;;1.55;0.98;;;22.70;97.60;;;;;;4150779;28;20069;-86
2023/07/08 08:24:05;;;;;;;1.20;1.10;;;22.70;98.20;;;;;;4149215;28;20375;-85
2023/07/08 08:26:25;;;;;;;1.25;1.10;;;22.70;98.40;;;;;;4142599;28;20065;-86
2023/07/08 08:28:46;;;;;;;1.92;1.30;;;22.70;97.60;;;;;;4130047;28;20130;-85
2023/07/08 08:31:06;;;;;;;1.60;1.50;;;22.70;97.40;;;;;;4144981;28;20048;-85
2023/07/08 08:33:26;;;;;;;7.07;1.23;;;22.90;98.20;;;;;;4154915;28;20368;-86
2023/07/08 08:35:46;;;;;;;1.92;1.20;;;23.20;98.90;;;;;;4144254;28;20058;-86
2023/07/08 08:38:07;;;;;;;1.20;1.10;;;23.40;96.30;;;;;;4148243;28;20072;-86
2023/07/08 08:40:27;;;;;;;2.30;1.08;;;24.00;98.70;;;;;;4155203;28;20624;-86
2023/07/08 08:42:57;;;;;;;2.30;1.20;;;24.40;96.30;;;;;;4135685;28;20101;-84
2023/07/08 08:45:20;;;;;;;1.48;0.98;;;24.80;96.60;;;;;;4151864;28;20118;-86
2023/07/08 08:47:43;;;;;;;0.95;0.95;;;25.20;94.50;;;;;;4145786;28;20122;-86
2023/07/08 08:50:45;;;;;;;2.85;1.27;;;25.20;94.50;;;;;;4128784;28;20053;-86
2023/07/08 08:53:11;;;;;;;1.98;1.00;;;25.50;94.00;;;;;;4143731;28;20089;-86
2023/07/08 08:55:31;;;;;;;1.52;1.42;;;25.80;94.50;;;;;;4145643;28;20376;-86
2023/07/08 08:58:25;;;;;;;1.00;1.00;;;26.00;92.50;;;;;;4145092;28;20354;-86
2023/07/08 09:00:58;;;;;;;0.90;0.90;;;26.10;90.60;;;;;;4147827;28;20435;-86
2023/07/08 09:03:42;;;;;;;2.25;0.80;;;26.30;92.10;;;;;;4152622;28;20057;-86
2023/07/08 09:06:12;;;;;;;0.90;0.90;;;26.60;91.20;;;;;;4110336;28;20078;-86
2023/07/08 09:08:35;;;;;;;0.95;0.90;;;26.60;92.80;;;;;;4141487;28;20089;-86
2023/07/08 09:11:01;;;;;;;1.70;0.90;;;26.50;91.80;;;;;;4136053;28;20049;-86
2023/07/08 09:13:31;;;;;;;0.90;0.90;;;26.80;88.30;;;;;;4151166;28;20148;-86
2023/07/08 09:16:17;;;;;;;1.10;0.90;;;27.00;91.30;;;;;;4145514;28;20045;-86
2023/07/08 09:18:50;;;;;;;3.80;1.17;;;27.10;89.70;;;;;;4119974;28;20060;-86
2023/07/08 09:21:21;;;;;;;2.30;0.90;;;27.10;89.70;;;;;;4154641;28;20081;-86
2023/07/08 09:23:43;;;;;;;1.00;1.00;;;27.10;87.70;;;;;;4143457;28;20070;-86
2023/07/08 09:26:11;;;;;;;1.48;1.08;;;27.30;90.30;;;;;;4154786;28;20049;-86
2023/07/08 09:28:43;;;;;;;1.15;1.15;;;27.60;90.00;;;;;;4134387;28;20062;-86
2023/07/08 09:31:07;;;;;;;0.98;0.80;;;27.30;90.90;;;;;;4152469;28;20113;-86
2023/07/08 09:33:28;;;;;;;0.82;0.82;;;27.30;90.60;;;;;;4144657;28;20045;-86
2023/07/08 09:35:48;;;;;;;0.95;0.95;;;27.20;90.80;;;;;;4152516;28;20045;-87
2023/07/08 09:38:17;;;;;;;2.45;0.80;;;27.10;90.50;;;;;;4133412;28;20093;-86
2023/07/08 09:40:37;;;;;;;1.65;0.90;;;27.10;91.40;;;;;;4146275;28;20079;-86
2023/07/08 09:43:16;;;;;;;0.88;0.88;;;27.00;90.70;;;;;;4135164;28;20153;-86
2023/07/08 09:45:47;;;;;;;1.02;0.90;;;27.10;94.30;;;;;;4144283;28;20277;-86
2023/07/08 09:48:16;;;;;;;1.10;0.80;;;27.50;91.30;;;;;;4147762;28;20085;-86
2023/07/08 09:50:37;;;;;;;0.80;0.80;;;27.90;91.90;;;;;;4151030;28;20392;-86
2023/07/08 09:53:00;;;;;;;2.45;0.82;;;28.20;91.00;;;;;;4133099;28;20093;-88
2023/07/08 09:55:21;;;;;;;0.80;0.80;;;28.40;90.00;;;;;;4145072;28;20041;-87
2023/07/08 09:57:44;;;;;;;2.15;0.82;;;28.40;90.00;;;;;;4147589;28;20056;-87
2023/07/08 10:00:12;;;;;;;1.05;0.80;;;28.50;89.00;;;;;;4150504;28;20056;-87
2023/07/08 10:02:56;;;;;;;1.70;0.90;;;28.50;89.40;;;;;;4134261;28;20036;-88
2023/07/08 10:05:29;;;;;;;0.80;0.80;;;28.10;87.20;;;;;;4148129;28;20437;-87
2023/07/08 10:07:53;;;;;;;1.75;0.90;;;28.60;90.80;;;;;;4144884;28;20072;-88
2023/07/08 10:10:18;;;;;;;0.60;0.60;;;28.60;90.70;;;;;;4145296;28;20392;-88
2023/07/08 10:12:42;;;;;;;0.80;0.70;;;28.90;92.60;;;;;;4143911;28;20045;-88
2023/07/08 10:15:15;;;;;;;0.80;0.80;;;29.40;88.90;;;;;;4148316;28;20085;-88
2023/07/08 10:17:40;;;;;;;0.77;0.77;;;29.50;87.80;;;;;;4142775;28;20228;-89
2023/07/08 10:20:00;;;;;;;1.35;0.73;;;29.80;86.80;;;;;;4145322;28;20045;-88
2023/07/08 10:23:02;;;;;;;2.25;0.70;;;30.00;87.60;;;;;;4150480;28;20233;-89
2023/07/08 10:25:34;;;;;;;0.80;0.80;;;30.40;87.00;;;;;;4147082;28;20113;-89
2023/07/08 10:27:57;;;;;;;2.13;0.93;;;30.50;88.60;;;;;;4145193;28;20092;-89
2023/07/08 10:30:20;;;;;;;1.40;0.80;;;30.50;84.20;;;;;;4144163;28;20096;-89
2023/07/08 10:33:01;;;;;;;1.63;0.80;;;30.30;84.60;;;;;;4148488;28;20137;-89
2023/07/08 10:35:24;;;;;;;0.80;0.77;;;30.40;84.50;;;;;;4150117;28;20077;-90
2023/07/08 10:37:58;;;;;;;0.70;0.70;;;30.30;82.00;;;;;;4142193;28;20065;-89
2023/07/08 10:40:38;;;;;;;1.60;0.70;;;30.30;82.40;;;;;;4143840;28;20057;-89
2023/07/08 10:43:15;;;;;;;0.80;0.80;;;30.60;86.00;;;;;;4150087;28;20102;-89
2023/07/08 10:45:52;;;;;;;0.70;0.70;;;31.00;85.40;;;;;;4153092;28;20089;-89
2023/07/08 10:48:37;;;;;;;1.10;1.10;;;30.80;82.80;;;;;;4133652;28;20110;-88
2023/07/08 10:51:22;;;;;;;2.65;0.70;;;31.00;80.50;;;;;;4130940;28;20097;-89
2023/07/08 10:53:59;;;;;;;1.15;0.70;;;31.30;84.30;;;;;;4147926;28;20076;-89
2023/07/08 10:56:25;;;;;;;0.60;0.60;;;31.20;81.30;;;;;;4131441;28;20285;-88
2023/07/08 10:59:11;;;;;;;0.70;0.70;;;31.00;80.90;;;;;;4130729;28;20074;-88
2023/07/08 11:01:52;;;;;;;1.55;0.70;;;31.30;83.20;;;;;;4126596;28;20046;-87
2023/07/08 11:04:12;;;;;;;1.00;0.70;;;31.30;81.40;;;;;;4143859;28;20077;-90
2023/07/08 11:06:45;;;;;;;0.63;0.63;;;31.50;81.20;;;;;;4163307;28;20052;-92
2023/07/08 11:09:19;;;;;;;0.70;0.70;;;32.10;82.10;;;;;;4159917;28;20049;-93
2023/07/08 11:11:39;;;;;;;0.70;0.70;;;32.40;84.80;;;;;;4155797;28;20038;-90
2023/07/08 11:14:09;;;;;;;0.77;0.70;;;32.50;79.80;;;;;;4152909;28;20053;-88
2023/07/08 11:16:44;;;;;;;1.13;0.60;;;32.10;77.70;;;;;;4142173;28;20049;-92
2023/07/08 11:19:12;;;;;;;1.65;0.60;;;32.20;80.00;;;;;;4152256;28;20077;-93
2023/07/08 11:21:46;;;;;;;0.60;0.60;;;32.40;80.30;;;;;;4152281;28;20060;-94
2023/07/08 11:24:13;;;;;;;0.70;0.70;;;32.40;74.20;;;;;;4157626;28;20081;-91
2023/07/08 11:26:37;;;;;;;0.60;0.60;;;32.10;74.70;;;;;;4151285;28;20045;-91
2023/07/08 11:29:00;;;;;;;2.20;0.60;;;32.10;74.40;;;;;;4152321;28;20070;-89
2023/07/08 11:31:22;;;;;;;0.90;0.60;;;32.60;75.70;;;;;;4155449;28;20098;-92
2023/07/08 11:33:43;;;;;;;0.60;0.60;;;32.60;74.30;;;;;;4157209;28;20053;-89
2023/07/08 11:36:05;;;;;;;0.70;0.70;;;32.60;73.30;;;;;;4132877;28;20073;-93
2023/07/08 11:38:25;;;;;;;1.77;0.63;;;32.50;74.90;;;;;;4155477;28;20349;-88
2023/07/08 11:41:04;;;;;;;0.70;0.70;;;32.70;76.00;;;;;;4142924;28;20052;-87
2023/07/08 11:43:36;;;;;;;0.68;0.68;;;33.10;72.60;;;;;;4145311;28;20038;-87
2023/07/08 11:46:00;;;;;;;0.60;0.60;;;33.30;75.70;;;;;;4147442;28;20068;-87
2023/07/08 11:48:34;;;;;;;0.90;0.60;;;33.30;69.50;;;;;;4151366;28;20049;-88
2023/07/08 11:50:55;;;;;;;0.60;0.60;;;33.50;74.80;;;;;;4133916;28;20076;-88
2023/07/08 11:53:46;;;;;;;0.60;0.60;;;33.60;70.60;;;;;;4149364;28;20100;-88
2023/07/08 11:56:15;;;;;;;0.65;0.60;;;33.40;69.50;;;;;;4145334;28;20085;-87
2023/07/08 11:58:52;;;;;;;0.60;0.60;;;33.50;72.60;;;;;;4148886;28;20089;-87
2023/07/08 12:01:12;;;;;;;2.92;0.60;;;32.90;69.60;;;;;;4140214;28;20126;-88
2023/07/08 12:03:39;;;;;;;0.60;0.60;;;32.80;66.40;;;;;;4132438;28;20108;-87
2023/07/08 12:06:02;;;;;;;0.60;0.60;;;32.60;65.80;;;;;;4147638;28;20044;-88
2023/07/08 12:08:33;;;;;;;0.93;0.60;;;32.70;64.90;;;;;;4138311;28;20046;-87
2023/07/08 12:10:56;;;;;;;0.95;0.50;;;33.00;68.00;;;;;;4132257;28;20142;-87
2023/07/08 12:13:20;;;;;;;0.60;0.60;;;32.80;63.00;;;;;;4151088;28;20049;-88
2023/07/08 12:15:41;;;;;;;0.60;0.60;;;32.80;67.60;;;;;;4143235;28;20045;-88
2023/07/08 12:18:35;;;;;;;1.30;0.60;;;32.80;71.20;;;;;;4146495;28;20092;-87
2023/07/08 12:20:58;;;;;;;0.70;0.70;;;33.20;65.60;;;;;;4132426;28;20053;-87
2023/07/08 12:23:23;;;;;;;0.60;0.60;;;33.50;64.90;;;;;;4145993;28;20413;-88
2023/07/08 12:25:43;;;;;;;1.70;0.70;;;33.60;63.30;;;;;;4152582;28;20049;-88
2023/07/08 12:28:03;;;;;;;1.98;0.60;;;33.90;72.00;;;;;;4150351;28;20364;-87
2023/07/08 12:30:25;;;;;;;0.90;0.50;;;34.20;72.20;;;;;;4148816;28;20041;-88